Time;durP1;ratioP1;P1;durP2;ratioP2;P2;SDS_P1;SDS_P2;PMS_P1;PMS_P2;Temp;Humidity;BMP_temperature;BMP_pressure;BME280_temperature;BME280_humidity;BME280_pressure;Samples;Min_cycle;Max_cycle;Signal;HPM_P1;HPM_P2
2021/03/07 00:01:35;;;;;;;98.05;85.05;;;21.80;53.90;;;;;;5073507;28;20031;-57
2021/03/07 00:04:01;;;;;;;99.05;81.85;;;21.80;54.50;;;;;;5091607;28;20537;-57
2021/03/07 00:06:27;;;;;;;88.32;73.45;;;21.80;53.90;;;;;;5091499;28;20055;-58
2021/03/07 00:08:53;;;;;;;92.55;74.85;;;21.80;53.90;;;;;;5073036;28;20027;-56
2021/03/07 00:11:19;;;;;;;81.50;68.60;;;21.80;53.90;;;;;;5091989;28;20104;-53
2021/03/07 00:13:45;;;;;;;82.15;69.00;;;21.70;53.90;;;;;;5080392;28;20043;-55
2021/03/07 00:16:11;;;;;;;85.85;72.13;;;21.70;53.90;;;;;;5101006;28;20039;-53
2021/03/07 00:18:37;;;;;;;75.60;64.50;;;21.80;53.90;;;;;;5080544;28;20032;-53
2021/03/07 00:21:03;;;;;;;80.00;66.72;;;21.70;53.90;;;;;;5100587;28;20039;-53
2021/03/07 00:23:29;;;;;;;76.53;65.18;;;21.70;53.90;;;;;;5096782;28;20922;-58
2021/03/07 00:25:55;;;;;;;75.55;63.42;;;21.70;53.90;;;;;;5070586;28;20111;-55
2021/03/07 00:28:21;;;;;;;75.20;61.78;;;21.80;53.90;;;;;;5095256;28;20473;-54
2021/03/07 00:30:47;;;;;;;66.20;56.15;;;21.70;53.90;;;;;;5057460;28;20020;-55
2021/03/07 00:33:13;;;;;;;66.13;56.72;;;21.70;53.90;;;;;;5091687;28;20039;-53
2021/03/07 00:35:39;;;;;;;66.10;56.97;;;21.70;53.90;;;;;;5092114;28;20025;-56
2021/03/07 00:38:05;;;;;;;71.55;58.35;;;21.70;53.90;;;;;;5073575;28;20032;-54
2021/03/07 00:40:31;;;;;;;61.80;54.45;;;21.70;53.90;;;;;;5073087;28;20081;-54
2021/03/07 00:42:57;;;;;;;65.18;52.53;;;21.70;53.90;;;;;;5070924;28;20035;-53
2021/03/07 00:45:23;;;;;;;66.30;57.13;;;21.70;53.90;;;;;;5073271;28;20035;-54
2021/03/07 00:47:49;;;;;;;64.25;55.47;;;21.70;53.90;;;;;;5090241;28;20020;-54
2021/03/07 00:50:24;;;;;;;58.60;52.28;;;21.70;53.90;;;;;;5073062;28;20401;-58
2021/03/07 00:52:50;;;;;;;63.17;52.80;;;21.70;53.90;;;;;;5089392;28;20111;-58
2021/03/07 00:55:16;;;;;;;59.53;51.28;;;21.70;53.90;;;;;;5089972;28;20059;-58
2021/03/07 00:57:42;;;;;;;60.78;50.70;;;21.70;53.90;;;;;;5071702;28;20024;-58
2021/03/07 01:00:20;;;;;;;57.58;47.67;;;21.70;54.00;;;;;;5089799;28;20085;-58
2021/03/07 01:02:46;;;;;;;54.88;45.70;;;21.70;54.00;;;;;;5089393;28;20090;-58
2021/03/07 01:05:13;;;;;;;54.47;46.40;;;21.70;54.60;;;;;;5092748;28;20035;-55
2021/03/07 01:07:39;;;;;;;52.05;42.85;;;21.70;54.00;;;;;;5090936;28;20402;-54
2021/03/07 01:10:15;;;;;;;51.85;42.78;;;21.70;54.00;;;;;;5090709;28;20028;-53
2021/03/07 01:12:41;;;;;;;49.30;42.58;;;21.70;54.10;;;;;;5091118;28;20040;-54
2021/03/07 01:15:09;;;;;;;49.55;42.13;;;21.70;54.10;;;;;;5091132;28;20082;-54
2021/03/07 01:17:35;;;;;;;48.45;39.35;;;21.70;54.10;;;;;;5089434;28;20027;-54
2021/03/07 01:20:11;;;;;;;49.13;41.08;;;21.70;54.10;;;;;;5090400;28;20040;-54
2021/03/07 01:22:37;;;;;;;48.97;38.80;;;21.60;54.10;;;;;;5092785;28;20043;-55
2021/03/07 01:25:06;;;;;;;47.97;37.63;;;21.60;54.10;;;;;;5073115;28;20024;-54
2021/03/07 01:27:32;;;;;;;48.97;36.80;;;21.60;54.10;;;;;;5090838;28;20034;-54
2021/03/07 01:29:58;;;;;;;44.92;35.85;;;21.70;54.10;;;;;;5073224;28;20393;-55
2021/03/07 01:32:24;;;;;;;43.22;35.95;;;21.60;54.10;;;;;;5091737;28;20021;-54
2021/03/07 01:34:50;;;;;;;41.60;34.58;;;21.60;54.10;;;;;;5091429;28;20038;-54
2021/03/07 01:37:16;;;;;;;43.05;32.88;;;21.60;54.10;;;;;;5091644;28;20107;-55
2021/03/07 01:39:42;;;;;;;42.05;34.70;;;21.60;54.10;;;;;;5091455;28;20123;-53
2021/03/07 01:42:12;;;;;;;45.38;33.72;;;21.60;54.20;;;;;;5072938;28;20118;-53
2021/03/07 01:44:38;;;;;;;38.58;32.78;;;21.60;54.20;;;;;;5093624;28;20434;-54
2021/03/07 01:47:05;;;;;;;38.78;31.15;;;21.60;54.20;;;;;;5094938;28;20100;-54
2021/03/07 01:49:31;;;;;;;38.08;28.80;;;21.60;54.20;;;;;;5076339;28;20035;-53
2021/03/07 01:51:57;;;;;;;37.58;26.67;;;21.60;54.20;;;;;;5094631;28;20047;-54
2021/03/07 01:54:24;;;;;;;30.60;24.95;;;21.60;54.20;;;;;;5076365;28;20066;-53
2021/03/07 01:56:53;;;;;;;35.08;23.98;;;21.60;54.20;;;;;;5095261;28;20035;-54
2021/03/07 01:59:24;;;;;;;33.42;24.92;;;21.60;54.20;;;;;;5094899;28;20024;-53
2021/03/07 02:01:51;;;;;;;33.70;24.50;;;21.60;54.30;;;;;;5076166;28;20046;-53
2021/03/07 02:04:17;;;;;;;29.17;23.48;;;21.60;54.20;;;;;;5094194;28;20028;-54
2021/03/07 02:06:43;;;;;;;35.22;24.77;;;21.60;54.30;;;;;;5093822;28;20107;-54
2021/03/07 02:09:09;;;;;;;35.72;24.98;;;21.60;54.30;;;;;;5094215;28;20028;-53
2021/03/07 02:11:38;;;;;;;29.77;23.25;;;21.50;54.30;;;;;;5094958;28;20028;-54
2021/03/07 02:14:06;;;;;;;30.77;23.98;;;21.60;54.40;;;;;;5076302;28;20055;-54
2021/03/07 02:16:34;;;;;;;34.88;23.90;;;21.50;54.40;;;;;;5094746;28;20111;-53
2021/03/07 02:19:01;;;;;;;32.88;24.35;;;21.50;54.40;;;;;;5093705;28;20055;-54
2021/03/07 02:21:36;;;;;;;29.00;23.02;;;21.50;54.50;;;;;;5093247;28;20036;-54
2021/03/07 02:24:11;;;;;;;33.25;24.08;;;21.50;54.40;;;;;;5094296;28;20028;-54
2021/03/07 02:26:45;;;;;;;30.02;23.45;;;21.50;55.10;;;;;;5094652;28;20024;-53
2021/03/07 02:29:13;;;;;;;29.02;22.20;;;21.50;54.50;;;;;;5094244;28;20055;-54
2021/03/07 02:31:48;;;;;;;34.08;21.85;;;21.50;55.00;;;;;;5092764;28;20500;-53
2021/03/07 02:34:19;;;;;;;29.98;21.23;;;21.50;54.50;;;;;;5094047;28;20024;-54
2021/03/07 02:36:57;;;;;;;30.98;20.23;;;21.50;54.50;;;;;;5094527;28;20028;-53
2021/03/07 02:39:31;;;;;;;31.92;21.35;;;21.50;54.60;;;;;;5094213;28;20043;-54
2021/03/07 02:42:27;;;;;;;26.73;20.45;;;21.50;54.50;;;;;;5093977;28;20027;-53
2021/03/07 02:44:58;;;;;;;26.85;21.08;;;21.50;54.50;;;;;;5094444;28;20039;-53
2021/03/07 02:47:26;;;;;;;24.50;19.95;;;21.50;54.50;;;;;;5094242;28;20020;-53
2021/03/07 02:49:55;;;;;;;26.65;19.15;;;21.50;54.50;;;;;;5094138;28;20028;-54
2021/03/07 02:52:23;;;;;;;30.20;20.35;;;21.50;54.60;;;;;;5093211;28;20447;-54
2021/03/07 02:54:55;;;;;;;29.58;20.27;;;21.50;54.60;;;;;;5093415;28;20390;-54
2021/03/07 02:57:25;;;;;;;25.00;18.83;;;21.50;54.70;;;;;;5075476;28;20035;-53
2021/03/07 02:59:53;;;;;;;25.00;18.67;;;21.50;54.70;;;;;;5093887;28;20020;-53
2021/03/07 03:02:22;;;;;;;24.98;18.27;;;21.50;54.70;;;;;;5093777;28;20055;-54
2021/03/07 03:04:49;;;;;;;25.38;17.85;;;21.50;54.70;;;;;;5074712;28;20479;-53
2021/03/07 03:07:16;;;;;;;25.23;18.10;;;21.50;54.70;;;;;;5093892;28;20040;-53
2021/03/07 03:09:43;;;;;;;22.08;17.42;;;21.50;54.80;;;;;;5093699;28;20020;-53
2021/03/07 03:12:10;;;;;;;24.45;17.15;;;21.50;54.90;;;;;;5093504;28;20157;-53
2021/03/07 03:14:37;;;;;;;26.80;18.90;;;21.50;54.80;;;;;;5093160;28;20023;-54
2021/03/07 03:17:04;;;;;;;28.42;17.50;;;21.50;54.80;;;;;;5093507;28;20044;-54
2021/03/07 03:19:34;;;;;;;24.02;17.00;;;21.50;54.90;;;;;;5093280;28;20051;-54
2021/03/07 03:22:01;;;;;;;26.20;17.75;;;21.50;54.90;;;;;;5092857;28;20032;-53
2021/03/07 03:24:27;;;;;;;23.13;15.57;;;21.50;54.90;;;;;;5093437;28;20052;-53
2021/03/07 03:27:01;;;;;;;26.08;15.70;;;21.50;55.50;;;;;;5093679;28;20814;-53
2021/03/07 03:29:32;;;;;;;23.35;16.13;;;21.50;55.00;;;;;;5093301;28;20024;-53
2021/03/07 03:31:59;;;;;;;24.33;16.02;;;21.50;55.00;;;;;;5093400;28;20051;-53
2021/03/07 03:34:25;;;;;;;23.73;15.23;;;21.50;55.00;;;;;;5092289;28;20038;-58
2021/03/07 03:36:51;;;;;;;23.27;15.35;;;21.50;55.00;;;;;;5092347;28;20420;-58
2021/03/07 03:39:21;;;;;;;23.65;14.95;;;21.50;55.00;;;;;;5092127;28;20032;-57
2021/03/07 03:41:59;;;;;;;20.92;13.95;;;21.50;55.10;;;;;;5092026;28;20043;-58
2021/03/07 03:44:33;;;;;;;26.40;15.98;;;21.50;55.10;;;;;;5092197;28;20032;-58
2021/03/07 03:47:01;;;;;;;27.90;16.80;;;21.50;55.10;;;;;;5073538;28;20036;-57
2021/03/07 03:49:33;;;;;;;28.25;16.60;;;21.40;55.00;;;;;;5091787;28;20408;-58
2021/03/07 03:52:02;;;;;;;21.65;16.00;;;21.40;55.10;;;;;;5092001;28;20085;-57
2021/03/07 03:54:31;;;;;;;23.67;15.40;;;21.40;55.10;;;;;;5092113;28;20031;-58
2021/03/07 03:56:59;;;;;;;23.75;15.77;;;21.40;55.10;;;;;;5092325;28;20426;-57
2021/03/07 03:59:31;;;;;;;18.52;14.20;;;21.40;55.20;;;;;;5091684;28;20445;-57
2021/03/07 04:02:00;;;;;;;22.23;13.98;;;21.40;55.20;;;;;;5091586;28;20031;-57
2021/03/07 04:04:28;;;;;;;22.23;15.68;;;21.40;55.20;;;;;;5091851;28;20021;-57
2021/03/07 04:06:55;;;;;;;22.50;14.23;;;21.40;55.20;;;;;;5091093;28;20042;-57
2021/03/07 04:09:22;;;;;;;20.58;14.90;;;21.40;55.20;;;;;;5092298;28;20055;-57
2021/03/07 04:11:48;;;;;;;20.42;13.95;;;21.40;55.20;;;;;;5091421;28;20028;-57
2021/03/07 04:14:17;;;;;;;24.13;13.68;;;21.40;55.10;;;;;;5091218;28;20043;-57
2021/03/07 04:16:44;;;;;;;19.60;13.50;;;21.40;55.20;;;;;;5091158;28;20052;-56
2021/03/07 04:19:10;;;;;;;22.08;14.43;;;21.40;55.20;;;;;;5089399;28;20039;-57
2021/03/07 04:21:39;;;;;;;19.90;13.77;;;21.40;55.20;;;;;;5072631;28;20040;-58
2021/03/07 04:24:05;;;;;;;23.23;12.95;;;21.40;55.20;;;;;;5091262;28;20409;-57
2021/03/07 04:26:32;;;;;;;24.60;14.80;;;21.40;55.20;;;;;;5091607;28;20028;-58
2021/03/07 04:28:58;;;;;;;20.95;13.13;;;21.40;55.20;;;;;;5091465;28;20024;-58
2021/03/07 04:31:24;;;;;;;23.20;12.63;;;21.40;55.30;;;;;;5091646;28;20472;-58
2021/03/07 04:33:50;;;;;;;22.20;13.40;;;21.40;55.30;;;;;;5091328;28;20036;-58
2021/03/07 04:36:17;;;;;;;19.42;13.45;;;21.40;55.30;;;;;;5073022;28;20059;-58
2021/03/07 04:38:43;;;;;;;19.52;14.57;;;21.40;55.30;;;;;;5091257;28;20601;-57
2021/03/07 04:41:09;;;;;;;19.38;13.32;;;21.40;55.30;;;;;;5091158;28;20135;-58
2021/03/07 04:43:50;;;;;;;22.80;13.88;;;21.40;55.30;;;;;;5073150;28;20035;-57
2021/03/07 04:46:21;;;;;;;22.02;13.65;;;21.40;55.30;;;;;;5091390;28;20066;-58
2021/03/07 04:48:48;;;;;;;17.30;12.90;;;21.40;55.30;;;;;;5091402;28;20093;-57
2021/03/07 04:51:14;;;;;;;20.35;14.48;;;21.40;55.20;;;;;;5091295;28;20016;-58
2021/03/07 04:53:40;;;;;;;19.75;13.63;;;21.40;55.30;;;;;;5091072;28;20040;-58
2021/03/07 04:56:06;;;;;;;19.45;13.82;;;21.40;55.30;;;;;;5091824;28;20043;-54
2021/03/07 04:58:34;;;;;;;20.00;13.15;;;21.40;55.30;;;;;;5091939;28;20032;-54
2021/03/07 05:01:01;;;;;;;22.15;12.57;;;21.40;56.00;;;;;;5092070;28;20107;-54
2021/03/07 05:03:27;;;;;;;20.95;13.23;;;21.30;55.30;;;;;;5092034;28;20438;-54
2021/03/07 05:05:53;;;;;;;17.05;13.07;;;21.40;55.40;;;;;;5091965;28;20040;-54
2021/03/07 05:08:19;;;;;;;17.42;12.80;;;21.40;55.40;;;;;;5090417;28;20378;-54
2021/03/07 05:10:45;;;;;;;21.63;13.20;;;21.40;55.40;;;;;;5091936;28;20039;-54
2021/03/07 05:13:12;;;;;;;17.50;12.13;;;21.40;55.40;;;;;;5091839;28;20032;-54
2021/03/07 05:15:38;;;;;;;19.98;12.63;;;21.40;55.40;;;;;;5092482;28;20391;-52
2021/03/07 05:18:06;;;;;;;18.00;12.10;;;21.30;55.40;;;;;;5091837;28;20055;-53
2021/03/07 05:20:33;;;;;;;19.92;13.40;;;21.30;55.40;;;;;;5094715;28;20046;-53
2021/03/07 05:22:59;;;;;;;19.95;12.80;;;21.30;55.40;;;;;;5095973;28;20081;-53
2021/03/07 05:25:25;;;;;;;23.58;13.00;;;21.30;55.40;;;;;;5095809;28;20122;-54
2021/03/07 05:27:51;;;;;;;28.77;13.45;;;21.30;55.40;;;;;;5095642;28;20035;-54
2021/03/07 05:30:17;;;;;;;21.23;13.35;;;21.30;55.40;;;;;;5095773;28;20031;-54
2021/03/07 05:32:43;;;;;;;18.77;12.50;;;21.30;55.50;;;;;;5095449;28;20474;-54
2021/03/07 05:35:10;;;;;;;19.55;12.32;;;21.30;55.50;;;;;;5095304;28;20024;-54
2021/03/07 05:37:36;;;;;;;21.75;12.85;;;21.30;55.50;;;;;;5095745;28;20047;-54
2021/03/07 05:40:03;;;;;;;16.85;11.93;;;21.30;55.60;;;;;;5095136;28;20028;-54
2021/03/07 05:42:30;;;;;;;21.52;13.15;;;21.30;55.60;;;;;;5095493;28;20157;-54
2021/03/07 05:44:56;;;;;;;18.67;11.48;;;21.30;55.60;;;;;;5095266;28;20027;-54
2021/03/07 05:47:22;;;;;;;22.13;13.27;;;21.30;55.60;;;;;;5095530;28;20342;-55
2021/03/07 05:49:48;;;;;;;20.27;13.07;;;21.30;55.60;;;;;;5095321;28;20032;-53
2021/03/07 05:52:15;;;;;;;16.67;11.48;;;21.30;55.70;;;;;;5098338;28;20035;-53
2021/03/07 05:54:42;;;;;;;21.55;15.15;;;21.30;55.70;;;;;;5104617;28;20433;-54
2021/03/07 05:57:08;;;;;;;22.38;16.85;;;21.30;55.70;;;;;;5095273;28;20039;-54
2021/03/07 05:59:37;;;;;;;29.42;20.80;;;21.30;55.70;;;;;;5094940;28;20428;-54
2021/03/07 06:02:03;;;;;;;33.97;25.20;;;21.30;55.70;;;;;;5094778;28;20032;-54
2021/03/07 06:04:29;;;;;;;36.28;27.27;;;21.30;55.70;;;;;;5094759;28;20095;-54
2021/03/07 06:06:55;;;;;;;42.70;33.15;;;21.30;55.70;;;;;;5095903;28;20034;-54
2021/03/07 06:09:29;;;;;;;46.03;31.73;;;21.20;55.80;;;;;;5102741;28;20024;-53
2021/03/07 06:11:57;;;;;;;39.22;29.27;;;21.20;55.90;;;;;;5104728;28;20167;-53
2021/03/07 06:14:23;;;;;;;38.20;29.98;;;21.20;55.90;;;;;;5098807;28;20505;-53
2021/03/07 06:17:09;;;;;;;37.97;27.65;;;21.20;55.90;;;;;;5098484;28;20112;-53
2021/03/07 06:19:57;;;;;;;36.45;27.52;;;21.20;56.10;;;;;;5116632;27;20055;-53
2021/03/07 06:22:23;;;;;;;158.23;126.47;;;21.20;56.10;;;;;;5094755;28;20150;-55
2021/03/07 06:24:50;;;;;;;134.13;116.30;;;21.20;56.10;;;;;;5094869;28;20019;-54
2021/03/07 06:27:17;;;;;;;62.88;54.08;;;21.20;56.20;;;;;;5075738;28;20028;-54
2021/03/07 06:30:02;;;;;;;71.57;53.55;;;21.20;56.20;;;;;;5075569;28;20497;-54
2021/03/07 06:32:34;;;;;;;64.68;48.90;;;21.10;56.20;;;;;;5094334;28;20028;-54
2021/03/07 06:35:00;;;;;;;48.88;41.42;;;21.10;56.20;;;;;;5093841;28;20027;-56
2021/03/07 06:37:27;;;;;;;85.65;69.55;;;21.10;56.20;;;;;;5094660;28;20092;-53
2021/03/07 06:39:53;;;;;;;76.72;67.80;;;21.10;56.30;;;;;;5094835;28;20035;-55
2021/03/07 06:42:21;;;;;;;63.72;56.05;;;21.10;56.30;;;;;;5094615;28;20488;-55
2021/03/07 06:44:57;;;;;;;66.72;56.55;;;21.10;56.30;;;;;;5075848;28;20024;-55
2021/03/07 06:47:23;;;;;;;65.35;51.13;;;21.10;56.30;;;;;;5075453;28;20503;-55
2021/03/07 06:50:06;;;;;;;57.55;49.35;;;21.10;56.30;;;;;;5094499;28;20024;-55
2021/03/07 06:52:33;;;;;;;44.13;38.70;;;21.10;56.30;;;;;;5093951;28;20425;-56
2021/03/07 06:55:06;;;;;;;47.33;38.47;;;21.20;56.30;;;;;;5094344;28;20024;-56
2021/03/07 06:57:32;;;;;;;47.75;36.05;;;21.10;56.30;;;;;;5075870;28;20036;-56
2021/03/07 06:59:58;;;;;;;40.85;31.50;;;21.10;56.50;;;;;;5094219;28;20027;-56
2021/03/07 07:02:24;;;;;;;38.28;30.33;;;21.20;56.30;;;;;;5079480;28;20103;-55
2021/03/07 07:04:50;;;;;;;32.85;27.38;;;21.20;56.30;;;;;;5082526;28;20043;-56
2021/03/07 07:07:19;;;;;;;42.90;33.25;;;21.20;56.40;;;;;;5088306;28;20069;-57
2021/03/07 07:09:47;;;;;;;182.27;161.65;;;21.10;56.40;;;;;;5093902;28;20024;-55
2021/03/07 07:12:23;;;;;;;96.07;79.72;;;21.10;56.40;;;;;;5092545;28;20505;-55
2021/03/07 07:14:50;;;;;;;104.78;89.50;;;21.10;56.40;;;;;;5092808;28;20027;-55
2021/03/07 07:17:18;;;;;;;92.95;74.53;;;21.20;56.50;;;;;;5091694;28;20032;-55
2021/03/07 07:19:47;;;;;;;165.07;140.38;;;21.10;56.40;;;;;;5093178;28;20393;-56
2021/03/07 07:22:16;;;;;;;163.25;138.88;;;21.20;56.50;;;;;;5093960;28;20032;-55
2021/03/07 07:24:43;;;;;;;134.35;117.72;;;21.10;56.40;;;;;;5098919;28;20031;-55
2021/03/07 07:27:10;;;;;;;102.65;88.53;;;21.20;56.50;;;;;;5106510;28;20027;-55
2021/03/07 07:29:38;;;;;;;98.05;83.80;;;21.10;56.40;;;;;;5092822;28;20028;-55
2021/03/07 07:32:10;;;;;;;85.63;70.65;;;21.10;56.50;;;;;;5093205;28;20408;-55
2021/03/07 07:34:54;;;;;;;74.18;62.88;;;21.10;56.40;;;;;;5093265;28;20131;-55
2021/03/07 07:37:28;;;;;;;66.07;50.85;;;21.10;56.40;;;;;;5089309;28;20031;-57
2021/03/07 07:39:55;;;;;;;56.88;46.08;;;21.20;56.50;;;;;;5060433;28;20134;-57
2021/03/07 07:42:21;;;;;;;51.60;41.83;;;21.10;56.30;;;;;;5095189;28;20092;-55
2021/03/07 07:44:48;;;;;;;49.22;37.35;;;21.20;56.40;;;;;;5085661;28;20023;-55
2021/03/07 07:47:14;;;;;;;41.08;31.67;;;21.10;56.40;;;;;;5103986;28;20153;-55
2021/03/07 07:49:48;;;;;;;39.25;30.23;;;21.10;56.40;;;;;;5091279;28;20020;-55
2021/03/07 07:52:26;;;;;;;36.70;26.65;;;21.10;56.40;;;;;;5091560;28;20496;-55
2021/03/07 07:54:58;;;;;;;30.42;22.92;;;21.10;56.40;;;;;;5079771;28;20054;-55
2021/03/07 07:57:36;;;;;;;28.38;21.10;;;21.10;56.40;;;;;;5090341;28;20346;-55
2021/03/07 08:00:11;;;;;;;29.98;21.08;;;21.10;56.50;;;;;;5092586;28;20039;-55
2021/03/07 08:02:51;;;;;;;22.48;17.20;;;21.10;56.40;;;;;;5088871;28;20027;-55
2021/03/07 08:05:20;;;;;;;30.05;16.83;;;21.10;56.40;;;;;;5092950;28;20072;-54
2021/03/07 08:08:10;;;;;;;24.85;15.95;;;21.10;56.40;;;;;;5092482;28;20527;-55
2021/03/07 08:10:37;;;;;;;17.17;13.23;;;21.10;56.40;;;;;;5092668;28;20425;-56
2021/03/07 08:13:04;;;;;;;19.77;12.68;;;21.30;56.50;;;;;;5092099;28;20358;-55
2021/03/07 08:15:31;;;;;;;20.67;12.98;;;21.20;56.40;;;;;;5092692;28;20108;-55
2021/03/07 08:17:58;;;;;;;18.33;12.02;;;21.10;56.30;;;;;;5092289;28;20381;-55
2021/03/07 08:20:54;;;;;;;16.95;10.68;;;21.10;56.40;;;;;;5092124;28;20040;-55
2021/03/07 08:23:24;;;;;;;17.65;10.98;;;21.10;56.40;;;;;;5078773;28;20054;-56
2021/03/07 08:25:50;;;;;;;20.70;11.93;;;21.10;56.40;;;;;;5092153;28;20027;-55
2021/03/07 08:28:28;;;;;;;14.85;10.48;;;21.10;56.40;;;;;;5074411;28;20028;-55
2021/03/07 08:30:56;;;;;;;15.20;10.25;;;21.20;56.50;;;;;;5088875;28;20111;-54
2021/03/07 08:33:23;;;;;;;22.27;10.48;;;21.10;56.40;;;;;;5092200;28;20032;-53
2021/03/07 08:36:18;;;;;;;16.08;9.18;;;21.10;56.40;;;;;;5091570;28;20030;-53
2021/03/07 08:38:53;;;;;;;18.60;10.43;;;21.10;56.40;;;;;;5074078;28;20027;-55
2021/03/07 08:41:24;;;;;;;16.67;9.40;;;21.20;56.50;;;;;;5091307;28;20027;-55
2021/03/07 08:43:55;;;;;;;44.85;31.05;;;21.20;56.60;;;;;;5092201;28;20116;-57
2021/03/07 08:46:21;;;;;;;38.67;30.80;;;21.20;56.60;;;;;;5091819;28;20059;-57
2021/03/07 08:48:54;;;;;;;33.35;21.85;;;21.20;56.60;;;;;;5092162;28;20143;-59
2021/03/07 08:51:30;;;;;;;31.08;19.58;;;21.20;56.70;;;;;;5091918;28;20823;-60
2021/03/07 08:54:03;;;;;;;24.73;15.90;;;21.30;57.50;;;;;;5094702;28;20024;-56
2021/03/07 08:56:29;;;;;;;30.23;15.88;;;21.30;56.90;;;;;;5096243;28;20533;-57
2021/03/07 08:58:56;;;;;;;28.45;15.05;;;21.30;56.90;;;;;;5077955;28;20148;-56
2021/03/07 09:01:23;;;;;;;32.33;14.57;;;21.30;57.10;;;;;;5095710;28;20412;-56
2021/03/07 09:04:01;;;;;;;24.77;12.25;;;21.30;57.00;;;;;;5095801;28;20044;-56
2021/03/07 09:06:35;;;;;;;73.28;56.72;;;21.30;57.00;;;;;;5098803;28;20023;-59
2021/03/07 09:09:09;;;;;;;52.17;37.97;;;21.30;56.90;;;;;;5105368;28;20020;-59
2021/03/07 09:11:37;;;;;;;54.80;34.05;;;21.30;56.90;;;;;;5085161;28;20111;-68
2021/03/07 09:14:03;;;;;;;33.25;23.27;;;21.30;57.10;;;;;;5112620;28;20023;-67
2021/03/07 09:17:00;;;;;;;27.60;19.17;;;21.30;56.90;;;;;;5076584;28;20118;-61
2021/03/07 09:19:29;;;;;;;21.02;15.05;;;21.20;56.90;;;;;;5027084;28;20132;-61
2021/03/07 09:22:25;;;;;;;42.80;31.75;;;21.20;56.90;;;;;;5032084;28;20042;-62
2021/03/07 09:24:56;;;;;;;40.83;32.78;;;21.20;56.90;;;;;;5032427;28;20092;-61
2021/03/07 09:27:25;;;;;;;29.05;20.42;;;21.20;56.80;;;;;;5029447;28;20030;-61
2021/03/07 09:30:16;;;;;;;19.00;11.35;;;21.20;56.90;;;;;;5032053;28;20041;-61
2021/03/07 09:32:46;;;;;;;;;;;21.20;56.90;;;;;;5020569;28;20057;-58
2021/03/07 09:35:21;;;;;;;18.45;12.20;;;21.20;56.90;;;;;;5014979;28;19909;-59
2021/03/07 09:38:15;;;;;;;14.98;10.45;;;21.30;56.60;;;;;;5028825;28;20119;-59
2021/03/07 09:40:43;;;;;;;18.52;13.23;;;21.30;56.60;;;;;;5031993;28;20168;-59
2021/03/07 09:43:12;;;;;;;46.72;29.73;;;21.30;56.60;;;;;;5014211;28;20045;-63
2021/03/07 09:45:45;;;;;;;34.38;23.33;;;21.30;56.60;;;;;;5015692;28;20025;-63
2021/03/07 09:48:11;;;;;;;24.77;15.90;;;21.20;56.60;;;;;;5032966;28;20033;-64
2021/03/07 09:50:40;;;;;;;22.92;13.88;;;21.20;56.70;;;;;;5033444;28;20040;-63
2021/03/07 09:53:07;;;;;;;28.73;17.95;;;21.30;56.70;;;;;;5016636;28;20076;-64
2021/03/07 09:55:35;;;;;;;24.48;14.23;;;21.20;56.60;;;;;;5047098;28;20538;-64
2021/03/07 09:58:09;;;;;;;21.10;11.07;;;21.20;56.60;;;;;;5106450;28;20053;-63
2021/03/07 10:00:38;;;;;;;16.45;11.40;;;21.20;56.40;;;;;;5107186;28;20024;-63
2021/03/07 10:03:17;;;;;;;18.40;9.82;;;21.20;56.30;;;;;;5106947;28;20027;-63
2021/03/07 10:06:01;;;;;;;15.45;9.52;;;21.20;56.20;;;;;;5091347;28;20020;-63
2021/03/07 10:08:31;;;;;;;16.75;8.73;;;21.30;56.20;;;;;;5093910;28;20086;-63
2021/03/07 10:11:20;;;;;;;20.05;14.73;;;21.30;56.10;;;;;;5094958;28;20024;-64
2021/03/07 10:13:58;;;;;;;15.82;11.00;;;21.30;56.00;;;;;;5095111;28;20028;-64
2021/03/07 10:16:34;;;;;;;16.92;9.25;;;21.40;55.90;;;;;;5080425;28;20543;-64
2021/03/07 10:19:12;;;;;;;13.25;7.70;;;21.40;55.60;;;;;;5103929;28;20036;-62
2021/03/07 10:21:41;;;;;;;13.68;6.68;;;21.40;55.60;;;;;;5094087;28;20047;-63
2021/03/07 10:24:13;;;;;;;17.33;7.70;;;21.40;55.50;;;;;;5094021;28;20160;-64
2021/03/07 10:26:40;;;;;;;15.35;6.75;;;21.50;55.40;;;;;;5093292;28;20500;-62
2021/03/07 10:29:22;;;;;;;10.27;6.68;;;21.50;55.10;;;;;;5082480;28;20475;-63
2021/03/07 10:32:00;;;;;;;14.50;6.32;;;21.50;54.90;;;;;;5095629;28;20093;-60
2021/03/07 10:34:44;;;;;;;19.63;7.78;;;21.50;54.80;;;;;;5078129;28;20377;-60
2021/03/07 10:37:36;;;;;;;17.92;6.97;;;21.50;54.70;;;;;;5111253;28;20032;-60
2021/03/07 10:40:06;;;;;;;14.88;6.45;;;21.50;54.60;;;;;;5091848;28;20028;-60
2021/03/07 10:42:34;;;;;;;10.38;5.97;;;21.60;54.50;;;;;;5066307;28;20120;-60
2021/03/07 10:45:23;;;;;;;21.70;13.75;;;21.60;54.30;;;;;;5094228;28;20065;-60
2021/03/07 10:48:07;;;;;;;25.42;15.65;;;21.60;54.30;;;;;;5085447;28;20020;-62
2021/03/07 10:50:35;;;;;;;24.35;15.35;;;21.60;54.30;;;;;;5075153;28;20470;-62
2021/03/07 10:53:01;;;;;;;16.83;9.55;;;21.70;54.20;;;;;;5075445;28;20081;-61
2021/03/07 10:55:27;;;;;;;11.70;7.07;;;21.70;54.10;;;;;;5075371;28;20103;-63
2021/03/07 10:57:53;;;;;;;9.50;5.65;;;21.70;54.00;;;;;;5075225;28;20047;-63
2021/03/07 11:00:23;;;;;;;8.45;5.05;;;21.80;54.50;;;;;;5093510;28;20035;-64
2021/03/07 11:02:49;;;;;;;12.27;7.45;;;21.80;53.80;;;;;;5094116;28;20542;-62
2021/03/07 11:05:16;;;;;;;30.77;24.73;;;21.90;54.00;;;;;;5093564;28;20051;-59
2021/03/07 11:07:43;;;;;;;16.98;12.63;;;22.00;53.80;;;;;;5075593;28;20048;-58
2021/03/07 11:10:12;;;;;;;16.70;6.85;;;22.00;53.50;;;;;;5093725;28;20080;-56
2021/03/07 11:12:39;;;;;;;11.27;5.72;;;22.20;53.60;;;;;;5093709;28;20409;-58
2021/03/07 11:15:06;;;;;;;10.07;5.53;;;22.30;53.50;;;;;;5109698;28;20067;-52
2021/03/07 11:17:34;;;;;;;28.25;23.33;;;22.40;53.10;;;;;;5093839;28;20126;-60
2021/03/07 11:20:00;;;;;;;41.97;36.40;;;22.60;52.80;;;;;;5093624;28;20442;-53
2021/03/07 11:22:27;;;;;;;15.75;13.02;;;22.70;52.40;;;;;;5093498;28;20064;-54
2021/03/07 11:24:53;;;;;;;12.73;7.30;;;22.90;51.90;;;;;;5093355;28;20031;-54
2021/03/07 11:27:19;;;;;;;7.72;4.85;;;23.00;51.70;;;;;;5088882;28;20055;-55
2021/03/07 11:29:45;;;;;;;9.00;6.32;;;23.20;51.10;;;;;;5073069;28;20043;-62
2021/03/07 11:32:11;;;;;;;12.25;7.35;;;23.30;50.80;;;;;;5081466;28;20494;-62
2021/03/07 11:34:37;;;;;;;11.27;4.88;;;23.30;50.20;;;;;;5093202;28;20074;-58
2021/03/07 11:37:03;;;;;;;8.50;5.03;;;23.40;49.70;;;;;;5086336;28;20060;-62
2021/03/07 11:39:30;;;;;;;11.30;4.28;;;23.40;49.70;;;;;;5072431;28;20367;-61
2021/03/07 11:41:56;;;;;;;11.68;5.97;;;23.40;49.50;;;;;;5072614;28;20116;-60
2021/03/07 11:44:23;;;;;;;12.05;6.78;;;23.30;49.40;;;;;;5072777;28;20032;-59
2021/03/07 11:46:51;;;;;;;10.73;7.15;;;23.30;49.30;;;;;;5055071;28;20032;-57
2021/03/07 11:49:19;;;;;;;14.35;6.63;;;23.30;49.40;;;;;;5054930;28;20036;-56
2021/03/07 11:51:45;;;;;;;8.63;6.82;;;23.20;49.50;;;;;;5072844;28;20051;-57
2021/03/07 11:54:11;;;;;;;16.45;7.10;;;23.20;49.80;;;;;;5085138;28;20462;-57
2021/03/07 11:56:37;;;;;;;12.10;7.15;;;23.10;49.90;;;;;;5080916;28;20485;-55
2021/03/07 11:59:03;;;;;;;7.90;5.35;;;23.10;50.00;;;;;;5072588;28;20067;-59
2021/03/07 12:01:29;;;;;;;8.55;6.00;;;23.10;50.20;;;;;;5072878;28;20028;-55
2021/03/07 12:03:55;;;;;;;10.85;6.07;;;23.00;50.30;;;;;;5072745;28;20024;-56
2021/03/07 12:06:21;;;;;;;12.73;5.97;;;23.00;50.50;;;;;;5072612;28;20047;-57
2021/03/07 12:08:47;;;;;;;8.07;5.43;;;22.90;50.60;;;;;;5072250;28;20036;-57
2021/03/07 12:11:13;;;;;;;8.07;5.43;;;22.90;50.80;;;;;;5074459;28;20031;-58
2021/03/07 12:13:39;;;;;;;9.77;6.68;;;22.90;50.90;;;;;;5072428;28;20039;-58
2021/03/07 12:16:06;;;;;;;15.63;12.00;;;22.90;51.00;;;;;;5072614;28;20032;-59
2021/03/07 12:18:35;;;;;;;18.58;14.80;;;22.80;51.10;;;;;;5072689;28;20034;-58
2021/03/07 12:21:02;;;;;;;27.25;22.15;;;22.80;51.20;;;;;;5072300;28;20046;-60
2021/03/07 12:23:28;;;;;;;24.13;18.38;;;22.80;50.90;;;;;;5071160;28;20052;-59
2021/03/07 12:25:54;;;;;;;20.40;18.20;;;22.80;50.70;;;;;;5072741;28;20032;-59
2021/03/07 12:28:20;;;;;;;20.17;15.60;;;22.80;50.60;;;;;;5072538;28;20052;-58
2021/03/07 12:30:46;;;;;;;16.27;12.10;;;22.80;50.60;;;;;;5088197;28;20405;-62
2021/03/07 12:33:12;;;;;;;14.80;12.20;;;22.80;50.60;;;;;;5072606;28;20051;-58
2021/03/07 12:35:38;;;;;;;12.00;7.47;;;22.80;50.60;;;;;;5054404;28;20037;-58
2021/03/07 12:38:04;;;;;;;10.52;8.07;;;22.80;50.40;;;;;;5054553;28;20094;-58
2021/03/07 12:40:31;;;;;;;10.00;7.78;;;22.70;50.50;;;;;;5072117;28;20052;-59